Pagrindinis puslapis
METAR-TAF:

METAR-TAF

Oro uostai :

San Salvador de Chuchujus, Argentina

platuma: 24-23S, ilguma: 065-05W, Aukštis: 921 m

Dabartinis oras

Ataskaita buvo paskelbta 19 minutes, ne 05:00 UTC
Vėjas 6 kt iš Vakarų/Šiaurės Vakarų
Temperatūra 12°C
Drėgmė 82%
Slėgis 1015 hPa
Matomumas 10 km arba daugiau
nėra debesų žemiau 1500 m ir nėra kamuolinių lietaus debesų

METAR: SASJ 290500Z 29006KT CAVOK 12/09 Q1015

Laikas: 02:19 (05:19 UTC)

Prognozė

Ataskaita buvo paskelbta 6 valandos ir 19 minutes, ne 23:00 UTC
Prognozė galioja nuo 29 metu 00 UTC su 29 metu 24 UTC
Vėjas 5 kt iš Vakarų/Šiaurės Vakarų
Matomumas 10 km arba daugiau
nėra debesų žemiau 1500 m ir nėra kamuolinių lietaus debesų
Tapsmas
nuo 29 metu 14 UTC su 29 metu 17 UTC
Vėjas 10 kt iš Rytų/Šiaurės Rytų

TAF: SASJ 282300Z 2900/2924 29005KT CAVOK TX24/2918Z TN09/2910Z BECMG 2914/2917 07010KT

Orai ataskaitas ir orų prognozės (METAR, TAF).

turimą stotys yra geltonos ir raudonos taškus žemėlapyje.

Perkelti pele per norėdami pamatyti stoties vardą.

Tada spustelėkite, norėdami matyti oro stebėjimo ir prognozės.

Norėdami pakeisti žemėlapį: spustelėkite ant žalios mygtukų su juodo kryžiaus žemyn,; žalią mygtuką su brūkšneliu, jei norite nutolinti; arba žalių rodyklių gretimoms žemėlapius.


METAR-TAF: